LEASLECO

Guest
Details From LEAS - Asturias
To LECO - A Coruna
Flight Number -
Tags generated
Created
Modified
Stats Distance 104 nm / 192 km
Max Altitude 5,600 ft / 1,707 m
Waypoints 3
Social Downloads 0
Likes 0
Share

Download

Looking for another format? Having issues loading an existing format? Contact us
Advertisement - Login to hide

Notes

Basic altitude profile: - Ascent Rate: 2500ft/min - Ascent Speed: 250kts - Cruise Altitude: 18000ft - Cruise Speed: 310kts - Descent Rate: 700ft/min - Descent Speed: 230kts Options: - Use NATs: yes - Use PACOTS: yes - Use low airways: yes - Use high airways: yes

Route

LEAS LURIM LECO

ID Type Via Altitude (ft/m) Position (lat/lon) Dist (leg/tot) Name
O LEAS APT - 0 / 0 43.56350 / -6.03467 - / 0 nm Asturias
LURIM FIX - 5,600 / 1,707 43.47638 / -6.37662 15 / 15 nm
O LECO APT - 0 / 0 43.30226 / -8.37709 87 / 103 nm A Coruna

Altitude Profile

Advertisement - Login to hide

LEAS

Details ICAO LEAS (OVD)
Name Asturias Airport
Region Spain
Timezone Europe/Madrid (UTC+2.0)
Stats Elevation 416 ft / 127 m (AMSL)
Location 43.563600° -6.034620°
Runways 1
Magnetic Variation 1.254° W

METAR

LEAS 211530Z 09009KT 7000 R29/1600U R11/1300U SCT015 BKN060 15/14 Q1005 NOSIG

Decode

TAF

TAF AMD LEAS 211459Z 2115/2215 VRB06KT 9999 SCT030 BKN045 TX18/2213Z TN09/2207Z TEMPO 2115/2121 4000 SHRA FEW025CB SCT030TCU PROB30 TEMPO 2115/2119 TSRA SCT030CB

Decode

Departure Runways

ID Width Length Bearing (true/mag) Surface Threshold Overrun Markings Lighting
11 148 ft / 45 m 7,225 ft / 2,202 m 108.07° / 109.32° ASPHALT 0 ft / 0 m 164 ft / 50 m PREC-APP CENTERLINE EDGE THRESHOLD REIL-OMNI
29 148 ft / 45 m 7,225 ft / 2,202 m 288.09° / 289.34° ASPHALT 0 ft / 0 m 164 ft / 50 m PREC-APP CENTERLINE EDGE THRESHOLD CALVERT-ILS TDZ REIL-UNI

LECO

Details ICAO LECO (LCG)
Name A Coruna
Region Spain
Timezone Europe/Madrid (UTC+2.0)
Stats Elevation 330 ft / 101 m (AMSL)
Location 43.301900° -8.377220°
Runways 1
Magnetic Variation 2.009° W

METAR

LECO 211530Z 19006KT 130V240 9999 FEW030 SCT040 16/13 Q1004 TEMPO 4000 SHRA SCT030TCU

Decode

TAF

TAF LECO 211400Z 2115/2215 18009KT 9999 SCT025 SCT040 TX17/2213Z TN10/2206Z PROB40 TEMPO 2115/2118 4000 -RA SHRA BKN030TCU TEMPO 2211/2215 SCT030TCU

Decode

Destination Runways

ID Width Length Bearing (true/mag) Surface Threshold Overrun Markings Lighting
03 148 ft / 45 m 6,364 ft / 1,940 m 30.94° / 32.94° ASPHALT 0 ft / 0 m 0 ft / 0 m PREC-APP CENTERLINE EDGE THRESHOLD REIL-OMNI
21 148 ft / 45 m 6,364 ft / 1,940 m 210.94° / 212.95° ASPHALT 0 ft / 0 m 0 ft / 0 m PREC-APP CENTERLINE EDGE THRESHOLD REIL-OMNI

Approach Navaids

Runway Type Ident Frequency Range Bearing (true/mag) Slope Elevation
21 DME LCO 109.90 MHz 18 nm / 33 km - - 293 ft / 89 m (AMSL)
21 LOC-ILS LCO 109.90 MHz 18 nm / 33 km 210.94° / 212.95 ° - 330 ft / 101 m (AMSL)
21 GS LCO 109.90 MHz 10 nm / 19 km 210.94° / 212.95 ° 3.00° 330 ft / 101 m (AMSL)

Popular Alternatives